Bodmin, United Kingdom
Current Conditions -  °F | °C
As of 5:20 PM on Saturday 25 Oct 2014 (Local Time) from EGHQ Reporting Station
Rain Showers Rain Showers  
Wind Chill: 55°   Ceiling: Unl
Heat Index: 55°   Visibility: 6mi
Dew Point: 48°   Wind: 13mph
Humidity: 77%   Direction: 240°WSW
Pressure: 30.12"   Gusts: NA
Location:  50.47°N, 4.72°W
Report Text: EGHQ 251620Z 24011KT 9999 VCSH SCT020 SCT034 13/09 Q1020
Loading
Personal Weather Stations






























Interactive Weather Map
Tropical Storm Tracking
New forecast layout! Learn more

10-Day Weather Forecast

Advertisements
Track Severe Weather on mobile